sensor_id;sensor_type;location;lat;lon;timestamp;temperature;humidity
24226;DHT22;51462;51.422;5.514;2023-05-10T00:01:48;13.50;99.90
24226;DHT22;51462;51.422;5.514;2023-05-10T00:04:13;13.50;99.90
24226;DHT22;51462;51.422;5.514;2023-05-10T00:06:39;13.60;99.90
24226;DHT22;51462;51.422;5.514;2023-05-10T00:09:04;13.60;99.90
24226;DHT22;51462;51.422;5.514;2023-05-10T00:11:30;13.60;99.90
24226;DHT22;51462;51.422;5.514;2023-05-10T00:13:56;13.60;99.90
24226;DHT22;51462;51.422;5.514;2023-05-10T00:16:21;13.60;99.90
24226;DHT22;51462;51.422;5.514;2023-05-10T00:18:47;13.70;99.90
24226;DHT22;51462;51.422;5.514;2023-05-10T00:21:12;13.70;99.90
24226;DHT22;51462;51.422;5.514;2023-05-10T00:23:38;13.70;99.90
24226;DHT22;51462;51.422;5.514;2023-05-10T00:26:03;13.70;99.90
24226;DHT22;51462;51.422;5.514;2023-05-10T00:28:29;13.70;99.90
24226;DHT22;51462;51.422;5.514;2023-05-10T00:30:55;13.70;99.90
24226;DHT22;51462;51.422;5.514;2023-05-10T00:33:20;13.60;99.90
24226;DHT22;51462;51.422;5.514;2023-05-10T00:35:46;13.60;99.90
24226;DHT22;51462;51.422;5.514;2023-05-10T00:38:12;13.60;99.90
24226;DHT22;51462;51.422;5.514;2023-05-10T00:40:40;13.70;99.90
24226;DHT22;51462;51.422;5.514;2023-05-10T00:43:06;13.80;99.90
24226;DHT22;51462;51.422;5.514;2023-05-10T00:45:35;13.80;99.90
24226;DHT22;51462;51.422;5.514;2023-05-10T00:48:02;13.80;99.90
24226;DHT22;51462;51.422;5.514;2023-05-10T00:50:29;13.90;99.90
24226;DHT22;51462;51.422;5.514;2023-05-10T00:52:56;13.90;99.90
24226;DHT22;51462;51.422;5.514;2023-05-10T00:55:22;13.80;99.90
24226;DHT22;51462;51.422;5.514;2023-05-10T00:57:48;13.80;99.90
24226;DHT22;51462;51.422;5.514;2023-05-10T01:00:14;13.80;99.90
24226;DHT22;51462;51.422;5.514;2023-05-10T01:02:46;13.80;99.90
24226;DHT22;51462;51.422;5.514;2023-05-10T01:05:12;13.90;99.90
24226;DHT22;51462;51.422;5.514;2023-05-10T01:07:38;13.80;99.90
24226;DHT22;51462;51.422;5.514;2023-05-10T01:10:06;13.90;99.90
24226;DHT22;51462;51.422;5.514;2023-05-10T01:12:33;13.80;99.90
24226;DHT22;51462;51.422;5.514;2023-05-10T01:15:00;13.70;99.90
24226;DHT22;51462;51.422;5.514;2023-05-10T01:17:26;13.60;99.90
24226;DHT22;51462;51.422;5.514;2023-05-10T01:19:52;13.60;99.90
24226;DHT22;51462;51.422;5.514;2023-05-10T01:31:03;13.80;99.90
24226;DHT22;51462;51.422;5.514;2023-05-10T01:34:03;13.80;99.90
24226;DHT22;51462;51.422;5.514;2023-05-10T01:36:38;13.70;99.90
24226;DHT22;51462;51.422;5.514;2023-05-10T01:41:48;13.80;99.90
24226;DHT22;51462;51.422;5.514;2023-05-10T01:44:18;13.80;99.90
24226;DHT22;51462;51.422;5.514;2023-05-10T01:46:56;13.70;99.90
24226;DHT22;51462;51.422;5.514;2023-05-10T01:49:29;13.70;99.90
24226;DHT22;51462;51.422;5.514;2023-05-10T01:52:00;13.80;99.90
24226;DHT22;51462;51.422;5.514;2023-05-10T01:54:28;13.80;99.90
24226;DHT22;51462;51.422;5.514;2023-05-10T01:57:01;13.70;99.90
24226;DHT22;51462;51.422;5.514;2023-05-10T01:59:30;13.80;99.90
24226;DHT22;51462;51.422;5.514;2023-05-10T02:02:02;13.70;99.90
24226;DHT22;51462;51.422;5.514;2023-05-10T02:04:30;13.70;99.90
24226;DHT22;51462;51.422;5.514;2023-05-10T02:06:56;13.60;99.90
24226;DHT22;51462;51.422;5.514;2023-05-10T02:09:23;13.70;99.90
24226;DHT22;51462;51.422;5.514;2023-05-10T02:11:51;13.60;99.90
24226;DHT22;51462;51.422;5.514;2023-05-10T02:14:18;13.60;99.90
24226;DHT22;51462;51.422;5.514;2023-05-10T02:16:45;13.70;99.90
24226;DHT22;51462;51.422;5.514;2023-05-10T02:19:12;13.70;99.90
24226;DHT22;51462;51.422;5.514;2023-05-10T02:21:40;13.70;99.90
24226;DHT22;51462;51.422;5.514;2023-05-10T02:24:07;13.70;99.90
24226;DHT22;51462;51.422;5.514;2023-05-10T02:26:35;13.60;99.90
24226;DHT22;51462;51.422;5.514;2023-05-10T02:29:02;13.70;99.90
24226;DHT22;51462;51.422;5.514;2023-05-10T02:31:30;13.80;99.90
24226;DHT22;51462;51.422;5.514;2023-05-10T02:33:58;13.80;99.90
24226;DHT22;51462;51.422;5.514;2023-05-10T02:36:24;13.80;99.90
24226;DHT22;51462;51.422;5.514;2023-05-10T02:38:53;13.70;99.90
24226;DHT22;51462;51.422;5.514;2023-05-10T02:41:20;13.60;99.90
24226;DHT22;51462;51.422;5.514;2023-05-10T02:43:47;13.80;99.90
24226;DHT22;51462;51.422;5.514;2023-05-10T02:46:14;13.80;99.90
24226;DHT22;51462;51.422;5.514;2023-05-10T02:48:40;13.60;99.90
24226;DHT22;51462;51.422;5.514;2023-05-10T02:51:07;13.70;99.90
24226;DHT22;51462;51.422;5.514;2023-05-10T02:53:35;13.70;99.90
24226;DHT22;51462;51.422;5.514;2023-05-10T02:56:05;13.80;99.90
24226;DHT22;51462;51.422;5.514;2023-05-10T02:58:33;13.90;99.90
24226;DHT22;51462;51.422;5.514;2023-05-10T03:01:00;13.70;99.90
24226;DHT22;51462;51.422;5.514;2023-05-10T03:03:26;13.80;99.90
24226;DHT22;51462;51.422;5.514;2023-05-10T03:05:51;13.80;99.90
24226;DHT22;51462;51.422;5.514;2023-05-10T03:08:21;13.80;99.90
24226;DHT22;51462;51.422;5.514;2023-05-10T03:11:09;13.60;99.90
24226;DHT22;51462;51.422;5.514;2023-05-10T03:13:56;13.60;99.90
24226;DHT22;51462;51.422;5.514;2023-05-10T03:16:35;13.50;99.90
24226;DHT22;51462;51.422;5.514;2023-05-10T03:19:27;13.60;99.90
24226;DHT22;51462;51.422;5.514;2023-05-10T03:21:59;13.60;99.90
24226;DHT22;51462;51.422;5.514;2023-05-10T03:24:27;13.60;99.90
24226;DHT22;51462;51.422;5.514;2023-05-10T03:26:56;13.60;99.90
24226;DHT22;51462;51.422;5.514;2023-05-10T03:29:25;13.60;99.90
24226;DHT22;51462;51.422;5.514;2023-05-10T03:31:51;13.80;99.90
24226;DHT22;51462;51.422;5.514;2023-05-10T03:34:16;13.70;99.90
24226;DHT22;51462;51.422;5.514;2023-05-10T03:36:48;13.80;99.90
24226;DHT22;51462;51.422;5.514;2023-05-10T03:39:13;13.60;99.90
24226;DHT22;51462;51.422;5.514;2023-05-10T03:41:39;13.60;99.90
24226;DHT22;51462;51.422;5.514;2023-05-10T03:44:04;13.70;99.90
24226;DHT22;51462;51.422;5.514;2023-05-10T03:46:30;13.70;99.90
24226;DHT22;51462;51.422;5.514;2023-05-10T03:48:55;13.70;99.90
24226;DHT22;51462;51.422;5.514;2023-05-10T03:51:21;13.80;99.90
24226;DHT22;51462;51.422;5.514;2023-05-10T03:53:47;13.80;99.90
24226;DHT22;51462;51.422;5.514;2023-05-10T03:56:13;13.60;99.90
24226;DHT22;51462;51.422;5.514;2023-05-10T03:58:38;13.70;99.90
24226;DHT22;51462;51.422;5.514;2023-05-10T04:01:04;13.70;99.90
24226;DHT22;51462;51.422;5.514;2023-05-10T04:03:29;13.80;99.90
24226;DHT22;51462;51.422;5.514;2023-05-10T04:05:59;13.60;99.90
24226;DHT22;51462;51.422;5.514;2023-05-10T04:08:25;13.50;99.90
24226;DHT22;51462;51.422;5.514;2023-05-10T04:10:51;13.50;99.90
24226;DHT22;51462;51.422;5.514;2023-05-10T04:13:16;13.60;99.90
24226;DHT22;51462;51.422;5.514;2023-05-10T04:15:42;13.70;99.90
24226;DHT22;51462;51.422;5.514;2023-05-10T04:18:08;13.80;99.90
24226;DHT22;51462;51.422;5.514;2023-05-10T04:20:34;13.70;99.90
24226;DHT22;51462;51.422;5.514;2023-05-10T04:22:59;13.60;99.90
24226;DHT22;51462;51.422;5.514;2023-05-10T04:25:25;13.50;99.90
24226;DHT22;51462;51.422;5.514;2023-05-10T04:27:51;13.40;99.90
24226;DHT22;51462;51.422;5.514;2023-05-10T04:30:17;13.40;99.90
24226;DHT22;51462;51.422;5.514;2023-05-10T04:32:43;13.30;99.90
24226;DHT22;51462;51.422;5.514;2023-05-10T04:35:08;13.40;99.90
24226;DHT22;51462;51.422;5.514;2023-05-10T04:37:35;13.30;99.90
24226;DHT22;51462;51.422;5.514;2023-05-10T04:40:02;13.20;99.90
24226;DHT22;51462;51.422;5.514;2023-05-10T04:42:29;13.20;99.90
24226;DHT22;51462;51.422;5.514;2023-05-10T04:44:55;13.20;99.90
24226;DHT22;51462;51.422;5.514;2023-05-10T04:47:20;13.20;99.90
24226;DHT22;51462;51.422;5.514;2023-05-10T04:49:46;13.30;99.90
24226;DHT22;51462;51.422;5.514;2023-05-10T04:52:11;13.40;99.90
24226;DHT22;51462;51.422;5.514;2023-05-10T04:54:37;13.30;99.90
24226;DHT22;51462;51.422;5.514;2023-05-10T04:57:02;13.10;99.90
24226;DHT22;51462;51.422;5.514;2023-05-10T04:59:28;13.20;99.90
24226;DHT22;51462;51.422;5.514;2023-05-10T05:01:53;13.20;99.90
24226;DHT22;51462;51.422;5.514;2023-05-10T05:04:19;13.30;99.90
24226;DHT22;51462;51.422;5.514;2023-05-10T05:06:44;13.10;99.90
24226;DHT22;51462;51.422;5.514;2023-05-10T05:09:10;13.20;99.90
24226;DHT22;51462;51.422;5.514;2023-05-10T05:11:36;13.30;99.90
24226;DHT22;51462;51.422;5.514;2023-05-10T05:14:01;13.20;99.90
24226;DHT22;51462;51.422;5.514;2023-05-10T05:16:27;13.20;99.90
24226;DHT22;51462;51.422;5.514;2023-05-10T05:18:52;13.30;99.90
24226;DHT22;51462;51.422;5.514;2023-05-10T05:21:19;13.40;99.90
24226;DHT22;51462;51.422;5.514;2023-05-10T05:23:45;13.50;99.90
24226;DHT22;51462;51.422;5.514;2023-05-10T05:26:11;13.30;99.90
24226;DHT22;51462;51.422;5.514;2023-05-10T05:28:37;13.30;99.90
24226;DHT22;51462;51.422;5.514;2023-05-10T05:31:06;13.30;99.90
24226;DHT22;51462;51.422;5.514;2023-05-10T05:33:35;13.40;99.90
24226;DHT22;51462;51.422;5.514;2023-05-10T05:36:05;13.30;99.90
24226;DHT22;51462;51.422;5.514;2023-05-10T05:38:31;13.30;99.90
24226;DHT22;51462;51.422;5.514;2023-05-10T05:40:56;13.30;99.90
24226;DHT22;51462;51.422;5.514;2023-05-10T05:43:22;13.30;99.90
24226;DHT22;51462;51.422;5.514;2023-05-10T05:45:47;13.40;99.90
24226;DHT22;51462;51.422;5.514;2023-05-10T05:48:13;13.20;99.90
24226;DHT22;51462;51.422;5.514;2023-05-10T05:50:39;13.40;99.90
24226;DHT22;51462;51.422;5.514;2023-05-10T05:53:04;13.40;99.90
24226;DHT22;51462;51.422;5.514;2023-05-10T05:55:30;13.30;99.90
24226;DHT22;51462;51.422;5.514;2023-05-10T05:57:57;13.30;99.90
24226;DHT22;51462;51.422;5.514;2023-05-10T06:00:23;13.50;99.90
24226;DHT22;51462;51.422;5.514;2023-05-10T06:02:48;13.30;99.90
24226;DHT22;51462;51.422;5.514;2023-05-10T06:05:14;13.20;99.90
24226;DHT22;51462;51.422;5.514;2023-05-10T06:07:39;13.40;99.90
24226;DHT22;51462;51.422;5.514;2023-05-10T06:10:07;13.50;99.90
24226;DHT22;51462;51.422;5.514;2023-05-10T06:12:33;13.30;99.90
24226;DHT22;51462;51.422;5.514;2023-05-10T06:14:59;13.40;99.90
24226;DHT22;51462;51.422;5.514;2023-05-10T06:17:24;13.50;99.90
24226;DHT22;51462;51.422;5.514;2023-05-10T06:19:50;13.40;99.90
24226;DHT22;51462;51.422;5.514;2023-05-10T06:22:16;13.40;99.90
24226;DHT22;51462;51.422;5.514;2023-05-10T06:24:41;13.60;99.90
24226;DHT22;51462;51.422;5.514;2023-05-10T06:27:07;13.50;99.90
24226;DHT22;51462;51.422;5.514;2023-05-10T06:29:33;13.40;99.90
24226;DHT22;51462;51.422;5.514;2023-05-10T06:31:58;13.30;99.90
24226;DHT22;51462;51.422;5.514;2023-05-10T06:34:24;13.30;99.90
24226;DHT22;51462;51.422;5.514;2023-05-10T06:36:50;13.30;99.90
24226;DHT22;51462;51.422;5.514;2023-05-10T06:39:15;13.30;99.90
24226;DHT22;51462;51.422;5.514;2023-05-10T06:41:41;13.40;99.90
24226;DHT22;51462;51.422;5.514;2023-05-10T06:44:07;13.40;99.90
24226;DHT22;51462;51.422;5.514;2023-05-10T06:46:33;13.40;99.90
24226;DHT22;51462;51.422;5.514;2023-05-10T06:48:59;13.40;99.90
24226;DHT22;51462;51.422;5.514;2023-05-10T06:51:25;13.50;99.90
24226;DHT22;51462;51.422;5.514;2023-05-10T06:53:51;13.30;99.90
24226;DHT22;51462;51.422;5.514;2023-05-10T06:56:16;13.50;99.90
24226;DHT22;51462;51.422;5.514;2023-05-10T06:58:42;13.70;99.90
24226;DHT22;51462;51.422;5.514;2023-05-10T07:01:07;13.70;99.90
24226;DHT22;51462;51.422;5.514;2023-05-10T07:03:33;13.70;99.90
24226;DHT22;51462;51.422;5.514;2023-05-10T07:06:03;13.80;99.90
24226;DHT22;51462;51.422;5.514;2023-05-10T07:08:30;13.80;99.90
24226;DHT22;51462;51.422;5.514;2023-05-10T07:11:05;13.90;99.90
24226;DHT22;51462;51.422;5.514;2023-05-10T07:13:33;14.00;99.90
24226;DHT22;51462;51.422;5.514;2023-05-10T07:15:59;13.90;99.90
24226;DHT22;51462;51.422;5.514;2023-05-10T07:18:25;13.90;99.90
24226;DHT22;51462;51.422;5.514;2023-05-10T07:20:51;13.80;99.90
24226;DHT22;51462;51.422;5.514;2023-05-10T07:23:17;13.80;99.90
24226;DHT22;51462;51.422;5.514;2023-05-10T07:25:48;13.70;99.90
24226;DHT22;51462;51.422;5.514;2023-05-10T07:28:14;13.70;99.90
24226;DHT22;51462;51.422;5.514;2023-05-10T07:30:40;13.70;99.90
24226;DHT22;51462;51.422;5.514;2023-05-10T07:33:06;13.60;99.90
24226;DHT22;51462;51.422;5.514;2023-05-10T07:35:33;13.70;99.90
24226;DHT22;51462;51.422;5.514;2023-05-10T07:37:59;13.70;99.90
24226;DHT22;51462;51.422;5.514;2023-05-10T07:40:25;13.80;99.90
24226;DHT22;51462;51.422;5.514;2023-05-10T07:42:51;14.00;99.90
24226;DHT22;51462;51.422;5.514;2023-05-10T07:45:17;14.10;99.90
24226;DHT22;51462;51.422;5.514;2023-05-10T07:47:43;14.00;99.90
24226;DHT22;51462;51.422;5.514;2023-05-10T07:50:09;13.80;99.90
24226;DHT22;51462;51.422;5.514;2023-05-10T07:52:34;14.00;99.90
24226;DHT22;51462;51.422;5.514;2023-05-10T07:55:00;13.90;99.90
24226;DHT22;51462;51.422;5.514;2023-05-10T07:57:25;13.80;99.90
24226;DHT22;51462;51.422;5.514;2023-05-10T07:59:51;13.70;99.90
24226;DHT22;51462;51.422;5.514;2023-05-10T08:02:16;13.80;99.90
24226;DHT22;51462;51.422;5.514;2023-05-10T08:04:42;13.60;99.90
24226;DHT22;51462;51.422;5.514;2023-05-10T08:07:07;13.60;99.90
24226;DHT22;51462;51.422;5.514;2023-05-10T08:09:33;13.80;99.90
24226;DHT22;51462;51.422;5.514;2023-05-10T08:11:59;13.90;99.90
24226;DHT22;51462;51.422;5.514;2023-05-10T08:14:25;13.80;99.90
24226;DHT22;51462;51.422;5.514;2023-05-10T08:16:51;13.80;99.90
24226;DHT22;51462;51.422;5.514;2023-05-10T08:19:16;13.80;99.90
24226;DHT22;51462;51.422;5.514;2023-05-10T08:21:45;13.60;99.90
24226;DHT22;51462;51.422;5.514;2023-05-10T08:24:11;13.70;99.90
24226;DHT22;51462;51.422;5.514;2023-05-10T08:26:36;13.70;99.90
24226;DHT22;51462;51.422;5.514;2023-05-10T08:29:02;13.50;99.90
24226;DHT22;51462;51.422;5.514;2023-05-10T08:31:28;13.60;99.90
24226;DHT22;51462;51.422;5.514;2023-05-10T08:33:53;13.50;99.90
24226;DHT22;51462;51.422;5.514;2023-05-10T08:36:19;13.70;99.90
24226;DHT22;51462;51.422;5.514;2023-05-10T08:38:50;13.60;99.90
24226;DHT22;51462;51.422;5.514;2023-05-10T08:41:19;13.80;99.90
24226;DHT22;51462;51.422;5.514;2023-05-10T08:43:46;13.70;99.90
24226;DHT22;51462;51.422;5.514;2023-05-10T08:46:16;13.80;99.90
24226;DHT22;51462;51.422;5.514;2023-05-10T08:48:46;13.80;99.90
24226;DHT22;51462;51.422;5.514;2023-05-10T08:51:21;13.90;99.90
24226;DHT22;51462;51.422;5.514;2023-05-10T08:53:47;13.80;99.90
24226;DHT22;51462;51.422;5.514;2023-05-10T08:56:13;14.00;99.90
24226;DHT22;51462;51.422;5.514;2023-05-10T08:58:40;14.10;99.90
24226;DHT22;51462;51.422;5.514;2023-05-10T09:01:06;14.00;99.90
24226;DHT22;51462;51.422;5.514;2023-05-10T09:03:32;14.00;99.90
24226;DHT22;51462;51.422;5.514;2023-05-10T09:05:58;14.00;99.90
24226;DHT22;51462;51.422;5.514;2023-05-10T09:08:24;14.00;99.90
24226;DHT22;51462;51.422;5.514;2023-05-10T09:10:54;14.00;99.90
24226;DHT22;51462;51.422;5.514;2023-05-10T09:13:21;14.00;99.90
24226;DHT22;51462;51.422;5.514;2023-05-10T09:15:48;14.20;99.90
24226;DHT22;51462;51.422;5.514;2023-05-10T09:18:13;14.00;99.90
24226;DHT22;51462;51.422;5.514;2023-05-10T09:20:39;14.10;99.90
24226;DHT22;51462;51.422;5.514;2023-05-10T09:23:05;14.20;99.90
24226;DHT22;51462;51.422;5.514;2023-05-10T09:25:31;14.20;99.90
24226;DHT22;51462;51.422;5.514;2023-05-10T09:27:58;14.20;99.90
24226;DHT22;51462;51.422;5.514;2023-05-10T09:30:31;14.40;99.90
24226;DHT22;51462;51.422;5.514;2023-05-10T09:32:58;14.50;99.90
24226;DHT22;51462;51.422;5.514;2023-05-10T09:35:26;14.50;99.90
24226;DHT22;51462;51.422;5.514;2023-05-10T09:37:53;14.50;99.90
24226;DHT22;51462;51.422;5.514;2023-05-10T09:40:21;14.60;99.90
24226;DHT22;51462;51.422;5.514;2023-05-10T09:43:04;14.70;99.90
24226;DHT22;51462;51.422;5.514;2023-05-10T09:45:33;14.80;99.90
24226;DHT22;51462;51.422;5.514;2023-05-10T09:48:00;14.90;99.90
24226;DHT22;51462;51.422;5.514;2023-05-10T09:50:27;15.00;99.90
24226;DHT22;51462;51.422;5.514;2023-05-10T09:52:58;15.00;99.90
24226;DHT22;51462;51.422;5.514;2023-05-10T09:55:39;14.90;99.90
24226;DHT22;51462;51.422;5.514;2023-05-10T09:58:05;14.90;99.90
24226;DHT22;51462;51.422;5.514;2023-05-10T10:00:36;14.80;99.90
24226;DHT22;51462;51.422;5.514;2023-05-10T10:03:03;14.90;99.90
24226;DHT22;51462;51.422;5.514;2023-05-10T10:05:33;15.10;99.90
24226;DHT22;51462;51.422;5.514;2023-05-10T10:08:02;15.20;99.90
24226;DHT22;51462;51.422;5.514;2023-05-10T10:10:29;15.30;99.90
24226;DHT22;51462;51.422;5.514;2023-05-10T10:12:56;15.40;99.90
24226;DHT22;51462;51.422;5.514;2023-05-10T10:15:22;15.40;99.90
24226;DHT22;51462;51.422;5.514;2023-05-10T10:17:49;15.40;99.90
24226;DHT22;51462;51.422;5.514;2023-05-10T10:20:16;15.40;99.90
24226;DHT22;51462;51.422;5.514;2023-05-10T10:22:42;15.40;99.90
24226;DHT22;51462;51.422;5.514;2023-05-10T10:25:11;15.40;99.90
24226;DHT22;51462;51.422;5.514;2023-05-10T10:30:47;15.50;99.90
24226;DHT22;51462;51.422;5.514;2023-05-10T10:33:59;15.60;99.90
24226;DHT22;51462;51.422;5.514;2023-05-10T10:36:05;15.60;99.90
24226;DHT22;51462;51.422;5.514;2023-05-10T10:41:30;15.50;99.90
24226;DHT22;51462;51.422;5.514;2023-05-10T10:49:52;15.50;99.90
24226;DHT22;51462;51.422;5.514;2023-05-10T10:52:31;15.60;99.90
24226;DHT22;51462;51.422;5.514;2023-05-10T10:55:10;15.70;99.90
24226;DHT22;51462;51.422;5.514;2023-05-10T10:57:44;15.70;99.90
24226;DHT22;51462;51.422;5.514;2023-05-10T11:03:14;15.50;99.90
24226;DHT22;51462;51.422;5.514;2023-05-10T11:05:48;15.50;99.90
24226;DHT22;51462;51.422;5.514;2023-05-10T11:08:26;15.50;99.90
24226;DHT22;51462;51.422;5.514;2023-05-10T11:11:04;15.60;99.90
24226;DHT22;51462;51.422;5.514;2023-05-10T11:13:46;15.60;99.90
24226;DHT22;51462;51.422;5.514;2023-05-10T11:16:20;15.60;99.90
24226;DHT22;51462;51.422;5.514;2023-05-10T11:19:08;15.70;99.90
24226;DHT22;51462;51.422;5.514;2023-05-10T11:21:48;15.70;99.90
24226;DHT22;51462;51.422;5.514;2023-05-10T11:24:16;15.80;99.90
24226;DHT22;51462;51.422;5.514;2023-05-10T11:26:42;15.80;99.90
24226;DHT22;51462;51.422;5.514;2023-05-10T11:29:08;15.80;99.90
24226;DHT22;51462;51.422;5.514;2023-05-10T11:31:34;15.90;99.90
24226;DHT22;51462;51.422;5.514;2023-05-10T11:34:00;16.00;99.90
24226;DHT22;51462;51.422;5.514;2023-05-10T11:36:35;16.00;99.90
24226;DHT22;51462;51.422;5.514;2023-05-10T11:39:01;16.20;99.90
24226;DHT22;51462;51.422;5.514;2023-05-10T11:41:29;16.30;99.90
24226;DHT22;51462;51.422;5.514;2023-05-10T11:43:55;16.50;99.90
24226;DHT22;51462;51.422;5.514;2023-05-10T11:46:25;16.60;99.90
24226;DHT22;51462;51.422;5.514;2023-05-10T11:48:57;16.80;99.90
24226;DHT22;51462;51.422;5.514;2023-05-10T11:51:24;17.00;99.90
24226;DHT22;51462;51.422;5.514;2023-05-10T11:53:53;17.10;99.90
24226;DHT22;51462;51.422;5.514;2023-05-10T11:56:19;17.10;99.90
24226;DHT22;51462;51.422;5.514;2023-05-10T11:58:51;17.30;99.90
24226;DHT22;51462;51.422;5.514;2023-05-10T12:01:17;17.20;99.90
24226;DHT22;51462;51.422;5.514;2023-05-10T12:03:42;17.50;99.90
24226;DHT22;51462;51.422;5.514;2023-05-10T12:06:08;17.50;99.90
24226;DHT22;51462;51.422;5.514;2023-05-10T12:08:34;17.50;99.90
24226;DHT22;51462;51.422;5.514;2023-05-10T12:11:08;17.60;99.90
24226;DHT22;51462;51.422;5.514;2023-05-10T12:13:41;17.50;99.90
24226;DHT22;51462;51.422;5.514;2023-05-10T12:16:20;17.70;99.90
24226;DHT22;51462;51.422;5.514;2023-05-10T12:18:50;17.60;99.90
24226;DHT22;51462;51.422;5.514;2023-05-10T12:21:16;17.60;99.90
24226;DHT22;51462;51.422;5.514;2023-05-10T12:23:42;17.70;99.90
24226;DHT22;51462;51.422;5.514;2023-05-10T12:26:11;17.60;99.90
24226;DHT22;51462;51.422;5.514;2023-05-10T12:28:37;17.40;99.90
24226;DHT22;51462;51.422;5.514;2023-05-10T12:31:03;17.20;99.90
24226;DHT22;51462;51.422;5.514;2023-05-10T12:33:40;17.30;99.90
24226;DHT22;51462;51.422;5.514;2023-05-10T12:36:14;17.20;99.90
24226;DHT22;51462;51.422;5.514;2023-05-10T12:38:44;17.20;99.90
24226;DHT22;51462;51.422;5.514;2023-05-10T12:41:14;17.20;99.90
24226;DHT22;51462;51.422;5.514;2023-05-10T12:43:40;17.30;99.90
24226;DHT22;51462;51.422;5.514;2023-05-10T12:48:36;17.20;99.90
24226;DHT22;51462;51.422;5.514;2023-05-10T12:51:02;17.00;99.90
24226;DHT22;51462;51.422;5.514;2023-05-10T12:53:28;16.90;99.90
24226;DHT22;51462;51.422;5.514;2023-05-10T12:55:54;17.00;99.90
24226;DHT22;51462;51.422;5.514;2023-05-10T12:58:20;16.80;99.90
24226;DHT22;51462;51.422;5.514;2023-05-10T13:00:46;17.00;99.90
24226;DHT22;51462;51.422;5.514;2023-05-10T13:03:11;17.00;99.90
24226;DHT22;51462;51.422;5.514;2023-05-10T13:05:37;16.80;99.90
24226;DHT22;51462;51.422;5.514;2023-05-10T13:08:03;16.70;99.90
24226;DHT22;51462;51.422;5.514;2023-05-10T13:10:30;16.60;99.90
24226;DHT22;51462;51.422;5.514;2023-05-10T13:12:56;16.60;99.90
24226;DHT22;51462;51.422;5.514;2023-05-10T13:15:22;16.70;99.90
24226;DHT22;51462;51.422;5.514;2023-05-10T13:17:48;16.60;99.90
24226;DHT22;51462;51.422;5.514;2023-05-10T13:20:17;16.60;99.90
24226;DHT22;51462;51.422;5.514;2023-05-10T13:22:44;16.60;99.90
24226;DHT22;51462;51.422;5.514;2023-05-10T13:25:10;16.20;99.90
24226;DHT22;51462;51.422;5.514;2023-05-10T13:27:36;15.90;99.90
24226;DHT22;51462;51.422;5.514;2023-05-10T13:30:03;16.30;99.90
24226;DHT22;51462;51.422;5.514;2023-05-10T13:32:29;16.20;99.90
24226;DHT22;51462;51.422;5.514;2023-05-10T13:34:55;16.20;99.90
24226;DHT22;51462;51.422;5.514;2023-05-10T13:37:21;16.20;99.90
24226;DHT22;51462;51.422;5.514;2023-05-10T13:39:47;16.30;99.90
24226;DHT22;51462;51.422;5.514;2023-05-10T13:42:13;16.40;99.90
24226;DHT22;51462;51.422;5.514;2023-05-10T13:44:38;16.30;99.90
24226;DHT22;51462;51.422;5.514;2023-05-10T13:47:04;16.20;99.90
24226;DHT22;51462;51.422;5.514;2023-05-10T13:49:30;16.00;99.90
24226;DHT22;51462;51.422;5.514;2023-05-10T13:51:55;15.60;99.90
24226;DHT22;51462;51.422;5.514;2023-05-10T13:54:21;15.70;99.90
24226;DHT22;51462;51.422;5.514;2023-05-10T13:56:47;15.90;99.90
24226;DHT22;51462;51.422;5.514;2023-05-10T13:59:14;15.70;99.90
24226;DHT22;51462;51.422;5.514;2023-05-10T14:01:40;15.60;99.90
24226;DHT22;51462;51.422;5.514;2023-05-10T14:04:06;15.30;99.90
24226;DHT22;51462;51.422;5.514;2023-05-10T14:06:38;15.70;99.90
24226;DHT22;51462;51.422;5.514;2023-05-10T14:09:03;15.40;99.90
24226;DHT22;51462;51.422;5.514;2023-05-10T14:11:29;15.50;99.90
24226;DHT22;51462;51.422;5.514;2023-05-10T14:13:54;15.80;99.90
24226;DHT22;51462;51.422;5.514;2023-05-10T14:16:20;15.60;99.90
24226;DHT22;51462;51.422;5.514;2023-05-10T14:18:46;15.60;99.90
24226;DHT22;51462;51.422;5.514;2023-05-10T14:21:12;15.50;99.90
24226;DHT22;51462;51.422;5.514;2023-05-10T14:23:37;15.60;99.90
24226;DHT22;51462;51.422;5.514;2023-05-10T14:26:03;15.70;99.90
24226;DHT22;51462;51.422;5.514;2023-05-10T14:28:29;15.90;99.90
24226;DHT22;51462;51.422;5.514;2023-05-10T14:30:54;15.80;99.90
24226;DHT22;51462;51.422;5.514;2023-05-10T14:33:20;16.00;99.90
24226;DHT22;51462;51.422;5.514;2023-05-10T14:35:46;16.10;99.90
24226;DHT22;51462;51.422;5.514;2023-05-10T14:38:12;15.90;99.90
24226;DHT22;51462;51.422;5.514;2023-05-10T14:40:38;16.00;99.90
24226;DHT22;51462;51.422;5.514;2023-05-10T14:43:03;16.00;99.90
24226;DHT22;51462;51.422;5.514;2023-05-10T14:45:29;15.90;99.90
24226;DHT22;51462;51.422;5.514;2023-05-10T14:47:55;16.00;99.90
24226;DHT22;51462;51.422;5.514;2023-05-10T14:50:20;15.80;99.90
24226;DHT22;51462;51.422;5.514;2023-05-10T14:52:46;16.00;99.90
24226;DHT22;51462;51.422;5.514;2023-05-10T14:55:11;15.90;99.90
24226;DHT22;51462;51.422;5.514;2023-05-10T14:57:40;15.70;99.90
24226;DHT22;51462;51.422;5.514;2023-05-10T15:00:06;15.70;99.90
24226;DHT22;51462;51.422;5.514;2023-05-10T15:02:32;15.70;99.90
24226;DHT22;51462;51.422;5.514;2023-05-10T15:04:58;15.70;99.90
24226;DHT22;51462;51.422;5.514;2023-05-10T15:07:24;15.80;99.90
24226;DHT22;51462;51.422;5.514;2023-05-10T15:09:50;15.70;99.90
24226;DHT22;51462;51.422;5.514;2023-05-10T15:12:17;15.30;99.90
24226;DHT22;51462;51.422;5.514;2023-05-10T15:14:43;15.40;99.90
24226;DHT22;51462;51.422;5.514;2023-05-10T15:17:08;15.50;99.90
24226;DHT22;51462;51.422;5.514;2023-05-10T15:19:34;15.50;99.90
24226;DHT22;51462;51.422;5.514;2023-05-10T15:21:59;15.10;99.90
24226;DHT22;51462;51.422;5.514;2023-05-10T15:24:25;15.20;99.90
24226;DHT22;51462;51.422;5.514;2023-05-10T15:26:51;15.20;99.90
24226;DHT22;51462;51.422;5.514;2023-05-10T15:29:16;15.30;99.90
24226;DHT22;51462;51.422;5.514;2023-05-10T15:31:46;15.10;99.90
24226;DHT22;51462;51.422;5.514;2023-05-10T15:34:13;15.30;99.90
24226;DHT22;51462;51.422;5.514;2023-05-10T15:36:39;15.30;99.90
24226;DHT22;51462;51.422;5.514;2023-05-10T15:39:04;15.40;99.90
24226;DHT22;51462;51.422;5.514;2023-05-10T15:41:30;15.10;99.90
24226;DHT22;51462;51.422;5.514;2023-05-10T15:43:57;15.00;99.90
24226;DHT22;51462;51.422;5.514;2023-05-10T15:46:25;15.00;99.90
24226;DHT22;51462;51.422;5.514;2023-05-10T15:48:50;15.10;99.90
24226;DHT22;51462;51.422;5.514;2023-05-10T15:51:16;14.90;99.90
24226;DHT22;51462;51.422;5.514;2023-05-10T15:53:42;14.80;99.90
24226;DHT22;51462;51.422;5.514;2023-05-10T15:56:07;15.00;99.90
24226;DHT22;51462;51.422;5.514;2023-05-10T15:58:33;15.00;99.90
24226;DHT22;51462;51.422;5.514;2023-05-10T16:00:59;15.00;99.90